sensor_id;sensor_type;location;lat;lon;timestamp;pressure;altitude;pressure_sealevel;temperature;humidity
8160;BME280;27404;52.398;9.646;2023-04-30T00:00:42;101587.25;;;4.19;100.00
8160;BME280;27404;52.398;9.646;2023-04-30T00:03:08;101583.38;;;4.13;100.00
8160;BME280;27404;52.398;9.646;2023-04-30T00:05:33;101583.03;;;4.08;100.00
8160;BME280;27404;52.398;9.646;2023-04-30T00:07:59;101585.06;;;4.06;100.00
8160;BME280;27404;52.398;9.646;2023-04-30T00:10:24;101587.25;;;4.03;100.00
8160;BME280;27404;52.398;9.646;2023-04-30T00:12:50;101588.09;;;4.03;100.00
8160;BME280;27404;52.398;9.646;2023-04-30T00:15:15;101583.69;;;4.02;100.00
8160;BME280;27404;52.398;9.646;2023-04-30T00:17:41;101582.34;;;3.98;100.00
8160;BME280;27404;52.398;9.646;2023-04-30T00:20:06;101587.41;;;3.93;100.00
8160;BME280;27404;52.398;9.646;2023-04-30T00:22:32;101590.97;;;3.93;100.00
8160;BME280;27404;52.398;9.646;2023-04-30T00:24:58;101583.03;;;3.92;100.00
8160;BME280;27404;52.398;9.646;2023-04-30T00:27:23;101587.94;;;3.88;100.00
8160;BME280;27404;52.398;9.646;2023-04-30T00:29:49;101585.03;;;3.81;100.00
8160;BME280;27404;52.398;9.646;2023-04-30T00:32:14;101579.63;;;3.81;100.00
8160;BME280;27404;52.398;9.646;2023-04-30T00:34:40;101591.28;;;3.74;100.00
8160;BME280;27404;52.398;9.646;2023-04-30T00:37:05;101588.59;;;3.74;100.00
8160;BME280;27404;52.398;9.646;2023-04-30T00:39:31;101594.47;;;3.69;100.00
8160;BME280;27404;52.398;9.646;2023-04-30T00:41:56;101600.91;;;3.68;100.00
8160;BME280;27404;52.398;9.646;2023-04-30T00:44:21;101603.28;;;3.63;100.00
8160;BME280;27404;52.398;9.646;2023-04-30T00:46:47;101607.69;;;3.64;100.00
8160;BME280;27404;52.398;9.646;2023-04-30T00:49:12;101599.38;;;3.57;100.00
8160;BME280;27404;52.398;9.646;2023-04-30T00:51:39;101605.44;;;3.51;100.00
8160;BME280;27404;52.398;9.646;2023-04-30T00:54:05;101607.94;;;3.44;100.00
8160;BME280;27404;52.398;9.646;2023-04-30T00:56:31;101613.69;;;3.41;100.00
8160;BME280;27404;52.398;9.646;2023-04-30T00:58:57;101610.31;;;3.39;100.00
8160;BME280;27404;52.398;9.646;2023-04-30T01:01:26;101611.31;;;3.38;100.00
8160;BME280;27404;52.398;9.646;2023-04-30T01:03:55;101609.94;;;3.34;100.00
8160;BME280;27404;52.398;9.646;2023-04-30T01:06:21;101612.66;;;3.34;100.00
8160;BME280;27404;52.398;9.646;2023-04-30T01:08:47;101623.13;;;3.37;100.00
8160;BME280;27404;52.398;9.646;2023-04-30T01:11:40;101621.75;;;3.33;100.00
8160;BME280;27404;52.398;9.646;2023-04-30T01:17:22;101631.50;;;3.17;100.00
8160;BME280;27404;52.398;9.646;2023-04-30T01:19:50;101630.47;;;3.18;100.00
8160;BME280;27404;52.398;9.646;2023-04-30T01:30:22;101637.81;;;3.00;100.00
8160;BME280;27404;52.398;9.646;2023-04-30T01:32:49;101638.16;;;2.96;100.00
8160;BME280;27404;52.398;9.646;2023-04-30T01:35:15;101635.78;;;2.93;100.00
8160;BME280;27404;52.398;9.646;2023-04-30T01:38:06;101634.56;;;2.88;100.00
8160;BME280;27404;52.398;9.646;2023-04-30T01:40:54;101640.44;;;2.83;100.00
8160;BME280;27404;52.398;9.646;2023-04-30T01:48:58;101641.59;;;2.80;100.00
8160;BME280;27404;52.398;9.646;2023-04-30T01:51:34;101643.78;;;2.77;100.00
8160;BME280;27404;52.398;9.646;2023-04-30T01:54:08;101648.63;;;2.73;100.00
8160;BME280;27404;52.398;9.646;2023-04-30T01:56:48;101650.50;;;2.73;100.00
8160;BME280;27404;52.398;9.646;2023-04-30T01:59:18;101650.28;;;2.66;100.00
8160;BME280;27404;52.398;9.646;2023-04-30T02:01:43;101653.84;;;2.66;100.00
8160;BME280;27404;52.398;9.646;2023-04-30T02:04:09;101653.16;;;2.64;100.00
8160;BME280;27404;52.398;9.646;2023-04-30T02:06:35;101651.97;;;2.67;100.00
8160;BME280;27404;52.398;9.646;2023-04-30T02:09:00;101653.53;;;2.70;100.00
8160;BME280;27404;52.398;9.646;2023-04-30T02:11:31;101648.94;;;2.70;100.00
8160;BME280;27404;52.398;9.646;2023-04-30T02:13:56;101648.13;;;2.70;100.00
8160;BME280;27404;52.398;9.646;2023-04-30T02:16:22;101645.03;;;2.64;100.00
8160;BME280;27404;52.398;9.646;2023-04-30T02:18:48;101652.13;;;2.65;100.00
8160;BME280;27404;52.398;9.646;2023-04-30T02:21:14;101644.66;;;2.59;100.00
8160;BME280;27404;52.398;9.646;2023-04-30T02:23:39;101655.56;;;2.49;100.00
8160;BME280;27404;52.398;9.646;2023-04-30T02:26:05;101649.78;;;2.44;100.00
8160;BME280;27404;52.398;9.646;2023-04-30T02:28:31;101658.66;;;2.36;100.00
8160;BME280;27404;52.398;9.646;2023-04-30T02:30:57;101659.81;;;2.34;100.00
8160;BME280;27404;52.398;9.646;2023-04-30T02:33:22;101659.34;;;2.39;100.00
8160;BME280;27404;52.398;9.646;2023-04-30T02:35:47;101661.03;;;2.40;100.00
8160;BME280;27404;52.398;9.646;2023-04-30T02:38:13;101658.13;;;2.33;100.00
8160;BME280;27404;52.398;9.646;2023-04-30T02:40:40;101663.31;;;2.26;100.00
8160;BME280;27404;52.398;9.646;2023-04-30T02:43:06;101665.16;;;2.26;100.00
8160;BME280;27404;52.398;9.646;2023-04-30T02:45:32;101674.41;;;2.23;100.00
8160;BME280;27404;52.398;9.646;2023-04-30T02:47:57;101670.47;;;2.17;100.00
8160;BME280;27404;52.398;9.646;2023-04-30T02:50:23;101662.69;;;2.14;100.00
8160;BME280;27404;52.398;9.646;2023-04-30T02:52:48;101670.78;;;2.14;100.00
8160;BME280;27404;52.398;9.646;2023-04-30T02:55:14;101678.56;;;2.17;100.00
8160;BME280;27404;52.398;9.646;2023-04-30T02:57:39;101678.56;;;2.17;100.00
8160;BME280;27404;52.398;9.646;2023-04-30T03:00:05;101682.75;;;2.12;100.00
8160;BME280;27404;52.398;9.646;2023-04-30T03:02:33;101684.56;;;2.11;100.00
8160;BME280;27404;52.398;9.646;2023-04-30T03:04:59;101679.34;;;2.10;100.00
8160;BME280;27404;52.398;9.646;2023-04-30T03:07:24;101671.25;;;2.10;100.00
8160;BME280;27404;52.398;9.646;2023-04-30T03:09:50;101666.69;;;2.10;100.00
8160;BME280;27404;52.398;9.646;2023-04-30T03:12:15;101675.78;;;2.09;100.00
8160;BME280;27404;52.398;9.646;2023-04-30T03:14:41;101670.88;;;2.04;100.00
8160;BME280;27404;52.398;9.646;2023-04-30T03:17:06;101673.16;;;1.99;100.00
8160;BME280;27404;52.398;9.646;2023-04-30T03:19:32;101682.44;;;1.97;100.00
8160;BME280;27404;52.398;9.646;2023-04-30T03:21:57;101684.25;;;1.96;100.00
8160;BME280;27404;52.398;9.646;2023-04-30T03:24:23;101687.25;;;1.93;100.00
8160;BME280;27404;52.398;9.646;2023-04-30T03:26:49;101686.13;;;1.96;100.00
8160;BME280;27404;52.398;9.646;2023-04-30T03:29:15;101672.78;;;1.94;100.00
8160;BME280;27404;52.398;9.646;2023-04-30T03:31:41;101677.88;;;1.97;100.00
8160;BME280;27404;52.398;9.646;2023-04-30T03:34:06;101680.34;;;1.90;100.00
8160;BME280;27404;52.398;9.646;2023-04-30T03:36:32;101682.47;;;1.87;100.00
8160;BME280;27404;52.398;9.646;2023-04-30T03:38:59;101678.25;;;1.84;100.00
8160;BME280;27404;52.398;9.646;2023-04-30T03:41:24;101674.56;;;1.85;100.00
8160;BME280;27404;52.398;9.646;2023-04-30T03:43:50;101677.38;;;1.84;100.00
8160;BME280;27404;52.398;9.646;2023-04-30T03:46:15;101680.09;;;1.84;100.00
8160;BME280;27404;52.398;9.646;2023-04-30T03:48:41;101688.63;;;1.79;100.00
8160;BME280;27404;52.398;9.646;2023-04-30T03:51:06;101692.47;;;1.76;100.00
8160;BME280;27404;52.398;9.646;2023-04-30T03:53:31;101694.16;;;1.77;100.00
8160;BME280;27404;52.398;9.646;2023-04-30T03:55:57;101696.72;;;1.79;100.00
8160;BME280;27404;52.398;9.646;2023-04-30T03:58:23;101700.13;;;1.81;100.00
8160;BME280;27404;52.398;9.646;2023-04-30T04:00:49;101701.22;;;1.88;100.00
8160;BME280;27404;52.398;9.646;2023-04-30T04:03:15;101694.53;;;1.92;100.00
8160;BME280;27404;52.398;9.646;2023-04-30T04:05:40;101706.00;;;1.95;100.00
8160;BME280;27404;52.398;9.646;2023-04-30T04:08:06;101712.44;;;2.02;100.00
8160;BME280;27404;52.398;9.646;2023-04-30T04:10:33;101716.09;;;2.11;100.00
8160;BME280;27404;52.398;9.646;2023-04-30T04:12:59;101720.19;;;2.15;100.00
8160;BME280;27404;52.398;9.646;2023-04-30T04:15:24;101719.91;;;2.18;100.00
8160;BME280;27404;52.398;9.646;2023-04-30T04:17:50;101723.28;;;2.20;100.00
8160;BME280;27404;52.398;9.646;2023-04-30T04:20:16;101714.72;;;2.25;100.00
8160;BME280;27404;52.398;9.646;2023-04-30T04:22:42;101715.81;;;2.32;100.00
8160;BME280;27404;52.398;9.646;2023-04-30T04:25:07;101721.88;;;2.52;100.00
8160;BME280;27404;52.398;9.646;2023-04-30T04:27:34;101732.59;;;3.06;100.00
8160;BME280;27404;52.398;9.646;2023-04-30T04:30:01;101728.69;;;3.70;100.00
8160;BME280;27404;52.398;9.646;2023-04-30T04:32:26;101722.75;;;4.42;100.00
8160;BME280;27404;52.398;9.646;2023-04-30T04:34:53;101729.59;;;5.36;100.00
8160;BME280;27404;52.398;9.646;2023-04-30T04:37:19;101732.13;;;6.26;100.00
8160;BME280;27404;52.398;9.646;2023-04-30T04:39:45;101722.50;;;7.15;100.00
8160;BME280;27404;52.398;9.646;2023-04-30T04:42:10;101714.69;;;8.45;100.00
8160;BME280;27404;52.398;9.646;2023-04-30T04:44:36;101719.22;;;9.80;100.00
8160;BME280;27404;52.398;9.646;2023-04-30T04:47:02;101724.44;;;9.75;100.00
8160;BME280;27404;52.398;9.646;2023-04-30T04:49:28;101716.75;;;8.43;100.00
8160;BME280;27404;52.398;9.646;2023-04-30T04:51:54;101720.38;;;7.25;100.00
8160;BME280;27404;52.398;9.646;2023-04-30T04:54:19;101728.44;;;6.42;100.00
8160;BME280;27404;52.398;9.646;2023-04-30T04:56:45;101720.44;;;5.85;100.00
8160;BME280;27404;52.398;9.646;2023-04-30T04:59:11;101729.91;;;5.49;100.00
8160;BME280;27404;52.398;9.646;2023-04-30T05:01:37;101727.44;;;5.23;100.00
8160;BME280;27404;52.398;9.646;2023-04-30T05:04:02;101734.56;;;5.08;100.00
8160;BME280;27404;52.398;9.646;2023-04-30T05:06:28;101739.84;;;4.93;100.00
8160;BME280;27404;52.398;9.646;2023-04-30T05:08:53;101731.56;;;4.86;100.00
8160;BME280;27404;52.398;9.646;2023-04-30T05:11:20;101735.13;;;4.86;100.00
8160;BME280;27404;52.398;9.646;2023-04-30T05:13:46;101735.47;;;4.83;100.00
8160;BME280;27404;52.398;9.646;2023-04-30T05:16:11;101736.66;;;4.81;100.00
8160;BME280;27404;52.398;9.646;2023-04-30T05:18:37;101741.91;;;4.82;100.00
8160;BME280;27404;52.398;9.646;2023-04-30T05:21:02;101741.56;;;4.85;100.00
8160;BME280;27404;52.398;9.646;2023-04-30T05:23:28;101735.97;;;4.87;100.00
8160;BME280;27404;52.398;9.646;2023-04-30T05:25:54;101745.13;;;4.86;100.00
8160;BME280;27404;52.398;9.646;2023-04-30T05:28:20;101739.38;;;4.89;100.00
8160;BME280;27404;52.398;9.646;2023-04-30T05:30:45;101742.75;;;4.91;100.00
8160;BME280;27404;52.398;9.646;2023-04-30T05:33:11;101740.38;;;4.96;100.00
8160;BME280;27404;52.398;9.646;2023-04-30T05:35:36;101740.34;;;5.04;100.00
8160;BME280;27404;52.398;9.646;2023-04-30T05:38:02;101752.19;;;5.12;100.00
8160;BME280;27404;52.398;9.646;2023-04-30T05:40:28;101751.69;;;5.16;100.00
8160;BME280;27404;52.398;9.646;2023-04-30T05:42:54;101746.59;;;5.22;100.00
8160;BME280;27404;52.398;9.646;2023-04-30T05:45:20;101746.22;;;5.33;100.00
8160;BME280;27404;52.398;9.646;2023-04-30T05:47:45;101756.72;;;5.36;100.00
8160;BME280;27404;52.398;9.646;2023-04-30T05:50:11;101749.06;;;5.48;100.00
8160;BME280;27404;52.398;9.646;2023-04-30T05:52:36;101758.03;;;5.57;100.00
8160;BME280;27404;52.398;9.646;2023-04-30T05:55:02;101761.09;;;7.48;100.00
8160;BME280;27404;52.398;9.646;2023-04-30T05:57:28;101756.25;;;11.98;100.00
8160;BME280;27404;52.398;9.646;2023-04-30T05:59:53;101760.88;;;15.75;89.88
8160;BME280;27404;52.398;9.646;2023-04-30T06:02:19;101763.63;;;18.09;67.59
8160;BME280;27404;52.398;9.646;2023-04-30T06:04:44;101781.78;;;19.47;58.75
8160;BME280;27404;52.398;9.646;2023-04-30T06:07:10;101783.03;;;21.65;50.11
8160;BME280;27404;52.398;9.646;2023-04-30T06:09:35;101787.22;;;23.08;44.00
8160;BME280;27404;52.398;9.646;2023-04-30T06:12:01;101793.94;;;23.36;41.15
8160;BME280;27404;52.398;9.646;2023-04-30T06:14:27;101790.50;;;23.93;38.19
8160;BME280;27404;52.398;9.646;2023-04-30T06:16:52;101786.84;;;23.15;36.95
8160;BME280;27404;52.398;9.646;2023-04-30T06:19:18;101785.53;;;21.51;38.37
8160;BME280;27404;52.398;9.646;2023-04-30T06:21:43;101790.00;;;22.23;36.49
8160;BME280;27404;52.398;9.646;2023-04-30T06:24:11;101801.09;;;23.72;35.74
8160;BME280;27404;52.398;9.646;2023-04-30T06:26:36;101798.66;;;23.36;33.98
8160;BME280;27404;52.398;9.646;2023-04-30T06:29:02;101797.72;;;23.16;33.38
8160;BME280;27404;52.398;9.646;2023-04-30T06:31:27;101795.81;;;21.71;35.54
8160;BME280;27404;52.398;9.646;2023-04-30T06:33:53;101793.94;;;20.79;35.86
8160;BME280;27404;52.398;9.646;2023-04-30T06:36:18;101797.81;;;20.93;35.91
8160;BME280;27404;52.398;9.646;2023-04-30T06:38:45;101794.47;;;21.43;36.42
8160;BME280;27404;52.398;9.646;2023-04-30T06:41:14;101787.38;;;20.16;35.56
8160;BME280;27404;52.398;9.646;2023-04-30T06:43:40;101793.56;;;19.75;37.88
8160;BME280;27404;52.398;9.646;2023-04-30T06:46:05;101784.09;;;19.23;36.62
8160;BME280;27404;52.398;9.646;2023-04-30T06:48:31;101792.00;;;20.79;36.13
8160;BME280;27404;52.398;9.646;2023-04-30T06:50:57;101790.78;;;19.75;36.18
8160;BME280;27404;52.398;9.646;2023-04-30T06:53:23;101790.78;;;19.70;37.33
8160;BME280;27404;52.398;9.646;2023-04-30T06:55:48;101794.94;;;20.31;36.36
8160;BME280;27404;52.398;9.646;2023-04-30T06:58:13;101794.63;;;20.22;35.72
8160;BME280;27404;52.398;9.646;2023-04-30T07:00:39;101789.06;;;19.64;38.13
8160;BME280;27404;52.398;9.646;2023-04-30T07:03:04;101789.69;;;18.95;38.59
8160;BME280;27404;52.398;9.646;2023-04-30T07:05:31;101792.75;;;20.49;36.02
8160;BME280;27404;52.398;9.646;2023-04-30T07:07:59;101797.78;;;19.88;36.52
8160;BME280;27404;52.398;9.646;2023-04-30T07:10:25;101793.91;;;19.36;37.51
8160;BME280;27404;52.398;9.646;2023-04-30T07:12:51;101800.59;;;18.47;38.80
8160;BME280;27404;52.398;9.646;2023-04-30T07:15:16;101797.41;;;16.35;41.50
8160;BME280;27404;52.398;9.646;2023-04-30T07:17:42;101794.78;;;14.62;46.62
8160;BME280;27404;52.398;9.646;2023-04-30T07:20:08;101789.28;;;13.13;50.43
8160;BME280;27404;52.398;9.646;2023-04-30T07:22:33;101786.75;;;11.49;54.68
8160;BME280;27404;52.398;9.646;2023-04-30T07:24:59;101791.84;;;10.85;61.00
8160;BME280;27404;52.398;9.646;2023-04-30T07:27:27;101798.06;;;10.45;65.13
8160;BME280;27404;52.398;9.646;2023-04-30T07:29:53;101794.06;;;10.48;70.33
8160;BME280;27404;52.398;9.646;2023-04-30T07:32:19;101786.34;;;10.10;75.43
8160;BME280;27404;52.398;9.646;2023-04-30T07:34:45;101778.56;;;9.65;80.55
8160;BME280;27404;52.398;9.646;2023-04-30T07:37:10;101782.31;;;9.57;83.28
8160;BME280;27404;52.398;9.646;2023-04-30T07:39:36;101787.19;;;9.33;82.28
8160;BME280;27404;52.398;9.646;2023-04-30T07:42:02;101791.09;;;9.52;88.17
8160;BME280;27404;52.398;9.646;2023-04-30T07:44:29;101791.72;;;9.54;83.66
8160;BME280;27404;52.398;9.646;2023-04-30T07:46:54;101785.72;;;9.66;87.69
8160;BME280;27404;52.398;9.646;2023-04-30T07:49:20;101785.75;;;9.72;88.66
8160;BME280;27404;52.398;9.646;2023-04-30T07:51:46;101787.84;;;9.70;87.46
8160;BME280;27404;52.398;9.646;2023-04-30T07:54:11;101793.13;;;9.78;86.82
8160;BME280;27404;52.398;9.646;2023-04-30T07:56:37;101788.63;;;9.99;85.55
8160;BME280;27404;52.398;9.646;2023-04-30T07:59:02;101786.03;;;9.84;85.83
8160;BME280;27404;52.398;9.646;2023-04-30T08:01:28;101792.72;;;9.82;84.04
8160;BME280;27404;52.398;9.646;2023-04-30T08:03:53;101789.50;;;10.13;83.85
8160;BME280;27404;52.398;9.646;2023-04-30T08:06:19;101798.00;;;10.32;81.36
8160;BME280;27404;52.398;9.646;2023-04-30T08:08:44;101790.38;;;10.14;81.94
8160;BME280;27404;52.398;9.646;2023-04-30T08:11:10;101794.81;;;9.80;84.16
8160;BME280;27404;52.398;9.646;2023-04-30T08:13:36;101803.72;;;9.88;86.62
8160;BME280;27404;52.398;9.646;2023-04-30T08:16:02;101794.78;;;9.38;83.41
8160;BME280;27404;52.398;9.646;2023-04-30T08:18:28;101802.81;;;9.46;84.65
8160;BME280;27404;52.398;9.646;2023-04-30T08:20:53;101802.34;;;9.71;81.84
8160;BME280;27404;52.398;9.646;2023-04-30T08:23:19;101797.59;;;9.86;82.55
8160;BME280;27404;52.398;9.646;2023-04-30T08:25:44;101792.88;;;10.08;78.84
8160;BME280;27404;52.398;9.646;2023-04-30T08:28:10;101798.66;;;10.41;77.86
8160;BME280;27404;52.398;9.646;2023-04-30T08:30:35;101798.59;;;10.27;77.38
8160;BME280;27404;52.398;9.646;2023-04-30T08:33:01;101799.63;;;10.13;79.33
8160;BME280;27404;52.398;9.646;2023-04-30T08:35:26;101794.50;;;10.03;83.88
8160;BME280;27404;52.398;9.646;2023-04-30T08:37:53;101795.38;;;10.03;80.30
8160;BME280;27404;52.398;9.646;2023-04-30T08:40:19;101799.63;;;9.77;81.19
8160;BME280;27404;52.398;9.646;2023-04-30T08:42:49;101793.69;;;10.09;78.06
8160;BME280;27404;52.398;9.646;2023-04-30T08:45:18;101786.94;;;10.54;78.34
8160;BME280;27404;52.398;9.646;2023-04-30T08:47:44;101788.22;;;10.58;75.51
8160;BME280;27404;52.398;9.646;2023-04-30T08:50:11;101785.03;;;10.61;77.49
8160;BME280;27404;52.398;9.646;2023-04-30T08:52:37;101781.25;;;10.62;75.40
8160;BME280;27404;52.398;9.646;2023-04-30T08:55:06;101783.41;;;10.87;79.02
8160;BME280;27404;52.398;9.646;2023-04-30T08:57:31;101788.44;;;10.96;76.90
8160;BME280;27404;52.398;9.646;2023-04-30T08:59:57;101795.00;;;11.16;75.40
8160;BME280;27404;52.398;9.646;2023-04-30T09:02:22;101788.44;;;11.30;75.19
8160;BME280;27404;52.398;9.646;2023-04-30T09:04:48;101782.56;;;11.20;73.81
8160;BME280;27404;52.398;9.646;2023-04-30T09:07:14;101776.44;;;11.31;73.31
8160;BME280;27404;52.398;9.646;2023-04-30T09:09:40;101774.53;;;11.38;73.67
8160;BME280;27404;52.398;9.646;2023-04-30T09:12:12;101785.72;;;11.17;70.67
8160;BME280;27404;52.398;9.646;2023-04-30T09:14:39;101785.50;;;11.18;69.28
8160;BME280;27404;52.398;9.646;2023-04-30T09:17:06;101782.56;;;11.13;68.62
8160;BME280;27404;52.398;9.646;2023-04-30T09:19:33;101781.28;;;11.29;69.23
8160;BME280;27404;52.398;9.646;2023-04-30T09:22:17;101777.91;;;11.34;71.13
8160;BME280;27404;52.398;9.646;2023-04-30T09:24:48;101779.59;;;11.48;71.35
8160;BME280;27404;52.398;9.646;2023-04-30T09:27:21;101775.75;;;11.56;69.55
8160;BME280;27404;52.398;9.646;2023-04-30T09:29:47;101771.97;;;11.57;70.54
8160;BME280;27404;52.398;9.646;2023-04-30T09:32:13;101772.34;;;11.81;70.91
8160;BME280;27404;52.398;9.646;2023-04-30T09:34:39;101770.16;;;12.03;72.78
8160;BME280;27404;52.398;9.646;2023-04-30T09:37:05;101763.28;;;12.33;69.96
8160;BME280;27404;52.398;9.646;2023-04-30T09:39:32;101764.25;;;12.45;70.66
8160;BME280;27404;52.398;9.646;2023-04-30T09:42:08;101765.78;;;12.34;66.82
8160;BME280;27404;52.398;9.646;2023-04-30T09:44:38;101761.75;;;11.91;64.36
8160;BME280;27404;52.398;9.646;2023-04-30T09:47:10;101759.72;;;11.66;67.68
8160;BME280;27404;52.398;9.646;2023-04-30T09:49:37;101747.06;;;11.79;66.63
8160;BME280;27404;52.398;9.646;2023-04-30T09:52:02;101751.69;;;11.78;65.19
8160;BME280;27404;52.398;9.646;2023-04-30T09:54:30;101759.69;;;11.80;67.74
8160;BME280;27404;52.398;9.646;2023-04-30T09:56:58;101756.25;;;11.98;66.35
8160;BME280;27404;52.398;9.646;2023-04-30T09:59:33;101751.72;;;11.65;63.93
8160;BME280;27404;52.398;9.646;2023-04-30T10:02:05;101746.09;;;11.39;66.71
8160;BME280;27404;52.398;9.646;2023-04-30T10:04:33;101744.50;;;11.77;66.47
8160;BME280;27404;52.398;9.646;2023-04-30T10:07:03;101741.72;;;11.91;64.57
8160;BME280;27404;52.398;9.646;2023-04-30T10:09:37;101741.88;;;12.09;66.67
8160;BME280;27404;52.398;9.646;2023-04-30T10:12:09;101736.72;;;11.81;63.15
8160;BME280;27404;52.398;9.646;2023-04-30T10:14:37;101739.03;;;11.84;62.32
8160;BME280;27404;52.398;9.646;2023-04-30T10:17:08;101742.28;;;12.13;68.73
8160;BME280;27404;52.398;9.646;2023-04-30T10:19:38;101742.16;;;12.33;64.55
8160;BME280;27404;52.398;9.646;2023-04-30T10:22:08;101743.03;;;12.27;61.37
8160;BME280;27404;52.398;9.646;2023-04-30T10:24:33;101745.78;;;12.27;65.23
8160;BME280;27404;52.398;9.646;2023-04-30T10:26:59;101742.16;;;12.33;60.74
8160;BME280;27404;52.398;9.646;2023-04-30T10:29:24;101751.16;;;12.08;59.74
8160;BME280;27404;52.398;9.646;2023-04-30T10:31:51;101745.25;;;12.11;61.18
8160;BME280;27404;52.398;9.646;2023-04-30T10:34:45;101740.84;;;11.97;60.66
8160;BME280;27404;52.398;9.646;2023-04-30T10:39:42;101726.94;;;12.37;64.47
8160;BME280;27404;52.398;9.646;2023-04-30T10:42:09;101727.63;;;12.33;57.78
8160;BME280;27404;52.398;9.646;2023-04-30T10:44:36;101718.84;;;12.17;57.43
8160;BME280;27404;52.398;9.646;2023-04-30T10:47:03;101722.44;;;12.18;60.36
8160;BME280;27404;52.398;9.646;2023-04-30T10:49:29;101720.91;;;12.28;60.45
8160;BME280;27404;52.398;9.646;2023-04-30T10:51:58;101729.00;;;12.17;57.05
8160;BME280;27404;52.398;9.646;2023-04-30T10:54:26;101715.34;;;12.42;56.61
8160;BME280;27404;52.398;9.646;2023-04-30T10:56:53;101711.34;;;12.38;57.59
8160;BME280;27404;52.398;9.646;2023-04-30T10:59:21;101709.50;;;12.32;56.12
8160;BME280;27404;52.398;9.646;2023-04-30T11:01:59;101714.66;;;12.14;55.46
8160;BME280;27404;52.398;9.646;2023-04-30T11:04:26;101699.47;;;12.19;58.93
8160;BME280;27404;52.398;9.646;2023-04-30T11:09:43;101704.06;;;12.25;58.16
8160;BME280;27404;52.398;9.646;2023-04-30T11:12:19;101701.59;;;12.17;54.88
8160;BME280;27404;52.398;9.646;2023-04-30T11:14:52;101709.63;;;12.11;54.26
8160;BME280;27404;52.398;9.646;2023-04-30T11:17:22;101692.34;;;11.97;56.64
8160;BME280;27404;52.398;9.646;2023-04-30T11:19:51;101688.38;;;11.93;57.43
8160;BME280;27404;52.398;9.646;2023-04-30T11:22:18;101692.41;;;11.91;57.12
8160;BME280;27404;52.398;9.646;2023-04-30T11:29:50;101687.69;;;11.59;56.38
8160;BME280;27404;52.398;9.646;2023-04-30T11:32:17;101682.56;;;11.76;57.34
8160;BME280;27404;52.398;9.646;2023-04-30T11:34:43;101686.25;;;11.95;56.16
8160;BME280;27404;52.398;9.646;2023-04-30T11:37:12;101690.03;;;12.08;55.30
8160;BME280;27404;52.398;9.646;2023-04-30T11:39:41;101683.06;;;11.98;54.74
8160;BME280;27404;52.398;9.646;2023-04-30T11:42:07;101683.66;;;12.14;55.21
8160;BME280;27404;52.398;9.646;2023-04-30T11:44:33;101676.91;;;12.17;53.95
8160;BME280;27404;52.398;9.646;2023-04-30T11:46:59;101674.47;;;12.34;53.45
8160;BME280;27404;52.398;9.646;2023-04-30T11:49:26;101669.78;;;12.41;54.72
8160;BME280;27404;52.398;9.646;2023-04-30T11:51:51;101669.69;;;12.54;56.51
8160;BME280;27404;52.398;9.646;2023-04-30T11:54:17;101678.84;;;12.41;54.11
8160;BME280;27404;52.398;9.646;2023-04-30T11:56:46;101666.63;;;12.37;55.83
8160;BME280;27404;52.398;9.646;2023-04-30T11:59:16;101672.78;;;12.33;55.05
8160;BME280;27404;52.398;9.646;2023-04-30T12:01:42;101669.19;;;12.32;56.08
8160;BME280;27404;52.398;9.646;2023-04-30T12:04:08;101658.41;;;12.37;57.43
8160;BME280;27404;52.398;9.646;2023-04-30T12:06:34;101663.69;;;12.39;56.22
8160;BME280;27404;52.398;9.646;2023-04-30T12:09:01;101653.88;;;12.24;53.98
8160;BME280;27404;52.398;9.646;2023-04-30T12:11:37;101653.81;;;12.31;54.60
8160;BME280;27404;52.398;9.646;2023-04-30T12:14:07;101655.84;;;12.42;51.21
8160;BME280;27404;52.398;9.646;2023-04-30T12:16:46;101648.47;;;12.43;54.04
8160;BME280;27404;52.398;9.646;2023-04-30T12:19:16;101653.53;;;12.39;54.57
8160;BME280;27404;52.398;9.646;2023-04-30T12:21:43;101647.22;;;12.39;53.19
8160;BME280;27404;52.398;9.646;2023-04-30T12:24:11;101647.06;;;12.34;50.67
8160;BME280;27404;52.398;9.646;2023-04-30T12:26:38;101644.97;;;12.29;53.23
8160;BME280;27404;52.398;9.646;2023-04-30T12:29:07;101655.47;;;12.32;52.22
8160;BME280;27404;52.398;9.646;2023-04-30T12:31:32;101647.59;;;12.42;50.99
8160;BME280;27404;52.398;9.646;2023-04-30T12:34:03;101648.66;;;12.41;53.89
8160;BME280;27404;52.398;9.646;2023-04-30T12:36:30;101647.22;;;12.39;52.67
8160;BME280;27404;52.398;9.646;2023-04-30T12:39:05;101641.69;;;12.46;51.98
8160;BME280;27404;52.398;9.646;2023-04-30T12:41:46;101638.22;;;12.57;53.35
8160;BME280;27404;52.398;9.646;2023-04-30T12:44:15;101637.47;;;12.68;52.12
8160;BME280;27404;52.398;9.646;2023-04-30T12:46:41;101645.03;;;12.73;50.58
8160;BME280;27404;52.398;9.646;2023-04-30T12:49:07;101636.47;;;12.63;50.54
8160;BME280;27404;52.398;9.646;2023-04-30T12:51:36;101635.19;;;12.65;50.22
8160;BME280;27404;52.398;9.646;2023-04-30T12:54:04;101633.56;;;12.57;50.09
8160;BME280;27404;52.398;9.646;2023-04-30T12:56:30;101633.28;;;12.66;51.13
8160;BME280;27404;52.398;9.646;2023-04-30T12:58:55;101628.81;;;12.71;53.60
8160;BME280;27404;52.398;9.646;2023-04-30T13:01:21;101630.06;;;12.69;52.81
8160;BME280;27404;52.398;9.646;2023-04-30T13:03:49;101626.53;;;12.87;54.25
8160;BME280;27404;52.398;9.646;2023-04-30T13:06:15;101624.69;;;12.99;54.57
8160;BME280;27404;52.398;9.646;2023-04-30T13:08:40;101625.06;;;12.84;53.55
8160;BME280;27404;52.398;9.646;2023-04-30T13:11:06;101617.91;;;12.83;53.27
8160;BME280;27404;52.398;9.646;2023-04-30T13:13:31;101614.63;;;12.93;52.08
8160;BME280;27404;52.398;9.646;2023-04-30T13:15:57;101619.66;;;12.96;51.63
8160;BME280;27404;52.398;9.646;2023-04-30T13:18:22;101605.81;;;12.91;50.14
8160;BME280;27404;52.398;9.646;2023-04-30T13:20:48;101605.72;;;12.98;51.57
8160;BME280;27404;52.398;9.646;2023-04-30T13:23:13;101601.31;;;12.97;50.41
8160;BME280;27404;52.398;9.646;2023-04-30T13:25:39;101590.78;;;13.12;52.90